createdAt,value
2022-10-13T00:00:42.777Z,69.93
2022-10-13T00:03:10.654Z,69.94
2022-10-13T00:05:45.154Z,70.23
2022-10-13T00:08:12.868Z,69.97
2022-10-13T00:10:45.909Z,70.23
2022-10-13T00:13:13.063Z,70.06
2022-10-13T00:15:41.261Z,70.07
2022-10-13T00:18:08.405Z,70.43
2022-10-13T00:20:35.580Z,70.13
2022-10-13T00:23:02.564Z,70.18
2022-10-13T00:25:29.637Z,70.35
2022-10-13T00:27:56.634Z,70.52
2022-10-13T00:30:35.806Z,70.47
2022-10-13T00:33:02.817Z,70.45
2022-10-13T00:35:29.733Z,70.20
2022-10-13T00:37:56.762Z,70.48
2022-10-13T00:40:27.181Z,70.70
2022-10-13T00:42:54.272Z,70.98
2022-10-13T00:45:21.159Z,70.97
2022-10-13T00:47:50.248Z,70.85
2022-10-13T00:50:23.674Z,70.68
2022-10-13T00:52:56.352Z,71.00
2022-10-13T00:55:26.392Z,70.81
2022-10-13T00:57:55.310Z,70.80
2022-10-13T01:00:30.787Z,70.81
2022-10-13T01:02:58.099Z,70.73
2022-10-13T01:05:25.394Z,70.81
2022-10-13T01:07:56.960Z,70.67
2022-10-13T01:10:35.178Z,70.65
2022-10-13T01:13:34.675Z,70.42
2022-10-13T01:16:13.925Z,70.90
2022-10-13T01:18:52.753Z,71.30
2022-10-13T01:21:39.068Z,71.57
2022-10-13T01:24:06.023Z,71.41
2022-10-13T01:26:59.201Z,71.23
2022-10-13T01:29:45.191Z,71.08
2022-10-13T01:32:16.721Z,71.49
2022-10-13T01:34:45.056Z,71.20
2022-10-13T01:37:19.371Z,71.33
2022-10-13T01:40:04.854Z,71.66
2022-10-13T01:42:35.787Z,72.13
2022-10-13T01:45:08.054Z,71.91
2022-10-13T01:47:35.581Z,72.26
2022-10-13T01:50:03.014Z,71.75
2022-10-13T01:52:33.561Z,72.00
2022-10-13T01:55:05.032Z,71.49
2022-10-13T01:57:33.553Z,71.97
2022-10-13T02:00:02.366Z,71.72
2022-10-13T02:02:54.994Z,71.89
2022-10-13T02:05:38.327Z,72.01
2022-10-13T02:08:10.775Z,71.96
2022-10-13T02:10:46.782Z,72.25
2022-10-13T02:13:15.252Z,71.54
2022-10-13T02:15:47.936Z,72.10
2022-10-13T02:18:16.036Z,72.24
2022-10-13T02:20:45.030Z,72.09
2022-10-13T02:23:15.334Z,72.05
2022-10-13T02:25:42.631Z,71.80
2022-10-13T02:28:10.403Z,72.36
2022-10-13T02:30:43.954Z,72.05
2022-10-13T02:33:11.503Z,72.54
2022-10-13T02:35:39.102Z,72.25
2022-10-13T02:38:06.338Z,72.07
2022-10-13T02:40:33.385Z,72.00
2022-10-13T02:43:00.328Z,72.03
2022-10-13T02:45:27.272Z,72.13
2022-10-13T02:47:55.549Z,71.96
2022-10-13T02:50:22.586Z,71.90
2022-10-13T02:52:50.794Z,72.21
2022-10-13T02:55:17.913Z,71.84
2022-10-13T02:57:45.937Z,71.71
2022-10-13T03:00:13.915Z,71.96
2022-10-13T03:02:41.004Z,71.84
2022-10-13T03:05:08.200Z,72.00
2022-10-13T03:07:35.168Z,71.85
2022-10-13T03:10:02.394Z,72.00
2022-10-13T03:12:30.128Z,72.08
2022-10-13T03:14:57.578Z,71.73
2022-10-13T03:17:24.562Z,71.83
2022-10-13T03:19:51.517Z,72.14
2022-10-13T03:22:19.576Z,72.17
2022-10-13T03:24:46.841Z,72.38
2022-10-13T03:27:14.589Z,72.28
2022-10-13T03:29:41.616Z,72.96
2022-10-13T03:32:09.133Z,72.85
2022-10-13T03:34:36.125Z,72.83
2022-10-13T03:37:03.128Z,72.26
2022-10-13T03:39:34.025Z,72.19
2022-10-13T03:42:01.132Z,72.73
2022-10-13T03:44:28.293Z,72.51
2022-10-13T03:46:55.292Z,72.69
2022-10-13T03:49:22.212Z,72.69
2022-10-13T03:51:49.255Z,72.74
2022-10-13T03:54:16.293Z,72.66
2022-10-13T03:56:45.393Z,72.29
2022-10-13T03:59:13.112Z,72.54
2022-10-13T04:01:40.317Z,72.88
2022-10-13T04:04:09.320Z,72.51
2022-10-13T04:06:38.034Z,72.80
2022-10-13T04:09:05.540Z,72.62
2022-10-13T04:11:32.533Z,72.12
2022-10-13T04:13:59.642Z,72.16
2022-10-13T04:16:27.923Z,72.68
2022-10-13T04:19:02.081Z,72.56
2022-10-13T04:21:30.029Z,72.78
2022-10-13T04:23:58.549Z,72.46
2022-10-13T04:26:27.008Z,72.40
2022-10-13T04:28:54.689Z,72.15
2022-10-13T04:31:22.379Z,72.40
2022-10-13T04:33:50.356Z,72.38
2022-10-13T04:36:18.364Z,72.67
2022-10-13T04:38:46.949Z,72.52
2022-10-13T04:41:14.956Z,72.46
2022-10-13T04:43:42.437Z,72.10
2022-10-13T04:46:12.811Z,72.42
2022-10-13T04:48:39.958Z,72.18
2022-10-13T04:51:11.641Z,72.09
2022-10-13T04:53:38.956Z,72.00
2022-10-13T04:56:10.605Z,71.74
2022-10-13T04:58:38.481Z,71.92
2022-10-13T05:01:07.066Z,71.77
2022-10-13T05:03:34.673Z,71.64
2022-10-13T05:06:01.862Z,71.77
2022-10-13T05:08:28.978Z,71.54
2022-10-13T05:10:55.902Z,71.56
2022-10-13T05:13:23.006Z,71.39
2022-10-13T05:15:50.513Z,71.16
2022-10-13T05:18:22.000Z,71.42
2022-10-13T05:20:49.277Z,71.16
2022-10-13T05:23:16.714Z,71.28
2022-10-13T05:25:43.892Z,71.20
2022-10-13T05:28:13.863Z,70.93
2022-10-13T05:30:40.952Z,71.14
2022-10-13T05:33:07.920Z,70.64
2022-10-13T05:35:35.138Z,70.17
2022-10-13T05:38:02.091Z,70.36
2022-10-13T05:40:29.465Z,70.53
2022-10-13T05:43:00.713Z,70.11
2022-10-13T05:45:29.772Z,70.31
2022-10-13T05:47:56.786Z,69.74
2022-10-13T05:50:23.860Z,70.18
2022-10-13T05:52:51.488Z,69.78
2022-10-13T05:55:19.321Z,69.69
2022-10-13T05:57:50.013Z,69.94
2022-10-13T06:00:19.136Z,69.57
2022-10-13T06:02:54.300Z,69.80
2022-10-13T06:05:23.538Z,69.48
2022-10-13T06:07:55.038Z,69.10
2022-10-13T06:10:23.846Z,69.74
2022-10-13T06:12:51.275Z,69.50
2022-10-13T06:15:18.463Z,69.32
2022-10-13T06:17:45.589Z,69.69
2022-10-13T06:20:12.933Z,69.46
2022-10-13T06:22:40.443Z,70.15
2022-10-13T06:25:07.874Z,68.16
2022-10-13T06:27:34.972Z,67.26
2022-10-13T06:30:02.230Z,66.88
2022-10-13T06:32:30.531Z,66.81
2022-10-13T06:34:57.504Z,66.59
2022-10-13T06:37:27.283Z,66.81
2022-10-13T06:39:54.937Z,67.37
2022-10-13T06:42:22.457Z,67.07
2022-10-13T06:45:08.216Z,65.85
2022-10-13T06:47:35.448Z,65.54
2022-10-13T06:50:02.420Z,66.06
2022-10-13T06:52:29.851Z,66.31
2022-10-13T06:54:56.837Z,66.42
2022-10-13T06:57:23.803Z,66.75
2022-10-13T06:59:53.016Z,66.73
2022-10-13T07:02:20.437Z,66.60
2022-10-13T07:04:47.768Z,66.00
2022-10-13T07:07:15.055Z,65.97
2022-10-13T07:09:42.908Z,66.26
2022-10-13T07:12:10.544Z,65.67
2022-10-13T07:14:39.298Z,65.94
2022-10-13T07:17:10.618Z,66.12
2022-10-13T07:19:37.691Z,65.92
2022-10-13T07:22:04.672Z,65.90
2022-10-13T07:24:31.987Z,65.91
2022-10-13T07:27:00.914Z,65.57
2022-10-13T07:29:30.955Z,65.81
2022-10-13T07:31:58.026Z,65.73
2022-10-13T07:34:25.055Z,65.28
2022-10-13T07:36:52.033Z,64.85
2022-10-13T07:39:19.022Z,64.39
2022-10-13T07:41:50.752Z,64.25
2022-10-13T07:44:18.264Z,64.08
2022-10-13T07:46:45.281Z,64.06
2022-10-13T07:49:15.322Z,63.96
2022-10-13T07:51:45.055Z,63.30
2022-10-13T07:54:12.237Z,63.12
2022-10-13T07:56:39.783Z,62.48
2022-10-13T07:59:07.740Z,62.46
2022-10-13T08:01:35.174Z,62.41
2022-10-13T08:04:02.550Z,62.25
2022-10-13T08:06:29.604Z,63.05
2022-10-13T08:08:58.418Z,63.09
2022-10-13T08:11:25.909Z,63.10
2022-10-13T08:13:53.425Z,63.33
2022-10-13T08:16:23.626Z,63.68
2022-10-13T08:18:50.823Z,63.15
2022-10-13T08:24:06.652Z,61.66
2022-10-13T08:26:33.949Z,60.65
2022-10-13T08:29:20.832Z,60.83
2022-10-13T08:34:20.114Z,60.84
2022-10-13T08:36:47.478Z,60.21
2022-10-13T08:39:14.681Z,60.08
2022-10-13T08:41:46.149Z,60.35
2022-10-13T08:47:10.650Z,60.47
2022-10-13T08:49:40.321Z,60.89
2022-10-13T08:52:13.993Z,61.08
2022-10-13T08:54:40.936Z,61.01
2022-10-13T08:57:09.421Z,61.08
2022-10-13T08:59:36.665Z,61.19
2022-10-13T09:02:10.624Z,60.89
2022-10-13T09:04:41.618Z,60.84
2022-10-13T09:07:11.490Z,60.69
2022-10-13T09:09:38.948Z,60.59
2022-10-13T09:12:06.556Z,60.48
2022-10-13T09:14:35.670Z,60.45
2022-10-13T09:17:16.824Z,60.46
2022-10-13T09:19:58.130Z,60.04
2022-10-13T09:22:26.792Z,60.21
2022-10-13T09:25:03.359Z,60.28
2022-10-13T09:27:41.174Z,59.95
2022-10-13T09:30:27.061Z,59.51
2022-10-13T09:33:13.834Z,60.13
2022-10-13T09:35:42.411Z,60.08
2022-10-13T09:38:20.503Z,59.83
2022-10-13T09:41:01.930Z,59.96
2022-10-13T09:43:48.123Z,59.74
2022-10-13T09:46:32.200Z,59.79
2022-10-13T09:49:02.072Z,59.25
2022-10-13T09:51:43.877Z,58.93
2022-10-13T09:54:28.595Z,58.71
2022-10-13T09:57:02.000Z,58.63
2022-10-13T09:59:39.416Z,59.25
2022-10-13T10:02:30.783Z,59.41
2022-10-13T10:05:01.370Z,59.57
2022-10-13T10:07:31.833Z,59.39
2022-10-13T10:10:05.585Z,59.41
2022-10-13T10:12:36.687Z,59.38
2022-10-13T10:15:14.874Z,59.28
2022-10-13T10:17:52.850Z,59.05
2022-10-13T10:20:38.843Z,59.17
2022-10-13T10:23:15.066Z,59.00
2022-10-13T10:25:48.696Z,59.11
2022-10-13T10:28:38.585Z,58.99
2022-10-13T10:31:11.555Z,59.29
2022-10-13T10:34:14.832Z,59.18
2022-10-13T10:36:52.670Z,59.27
2022-10-13T10:39:28.838Z,59.03
2022-10-13T10:41:58.685Z,59.20
2022-10-13T10:44:30.808Z,59.25
2022-10-13T10:47:01.488Z,59.34
2022-10-13T10:49:35.509Z,59.47
2022-10-13T10:52:06.167Z,59.27
2022-10-13T10:54:51.968Z,59.10
2022-10-13T10:57:19.517Z,59.09
2022-10-13T10:59:52.665Z,59.09
2022-10-13T11:02:19.752Z,59.17
2022-10-13T11:04:50.136Z,58.98
2022-10-13T11:07:23.100Z,59.27
2022-10-13T11:09:53.096Z,59.34
2022-10-13T11:12:20.810Z,59.77
2022-10-13T11:15:02.292Z,59.50
2022-10-13T11:17:34.658Z,59.46
2022-10-13T11:20:21.583Z,59.99
2022-10-13T11:22:57.765Z,59.61
2022-10-13T11:25:43.890Z,59.69
2022-10-13T11:28:23.611Z,59.74
2022-10-13T11:30:50.921Z,59.86
2022-10-13T11:33:50.672Z,59.81
2022-10-13T11:36:29.720Z,59.79
2022-10-13T11:39:16.946Z,60.00
2022-10-13T11:41:50.128Z,59.95
2022-10-13T11:44:26.022Z,60.05
2022-10-13T11:47:23.966Z,59.84
2022-10-13T11:49:51.568Z,60.06
2022-10-13T11:52:22.020Z,59.97
2022-10-13T11:54:52.065Z,60.17
2022-10-13T11:57:20.722Z,59.89
2022-10-13T11:59:48.729Z,60.90
2022-10-13T12:02:19.250Z,60.54
2022-10-13T12:04:59.612Z,60.38
2022-10-13T12:07:29.902Z,59.99
2022-10-13T12:09:59.663Z,60.36
2022-10-13T12:12:26.926Z,60.71
2022-10-13T12:14:55.846Z,60.44
2022-10-13T12:17:27.317Z,60.30
2022-10-13T12:19:55.536Z,60.23
2022-10-13T12:22:22.727Z,61.09
2022-10-13T12:25:07.478Z,60.93
2022-10-13T12:27:48.198Z,60.91
2022-10-13T12:30:27.535Z,60.50
2022-10-13T12:32:55.765Z,60.45
2022-10-13T12:35:27.345Z,61.03
2022-10-13T12:37:55.152Z,60.76
2022-10-13T12:40:23.075Z,60.57
2022-10-13T12:42:50.788Z,60.99
2022-10-13T12:45:19.615Z,61.01
2022-10-13T12:47:49.240Z,60.60
2022-10-13T12:50:25.709Z,60.33
2022-10-13T12:52:54.393Z,60.79
2022-10-13T12:55:23.146Z,61.03
2022-10-13T12:57:51.670Z,60.94
2022-10-13T13:00:18.861Z,60.53
2022-10-13T13:03:06.429Z,60.25
2022-10-13T13:05:38.402Z,60.34
2022-10-13T13:08:25.010Z,59.59
2022-10-13T13:11:00.103Z,59.51
2022-10-13T13:13:27.706Z,60.39
2022-10-13T13:16:13.239Z,60.04
2022-10-13T13:18:42.415Z,59.33
2022-10-13T13:21:11.542Z,59.89
2022-10-13T13:23:42.332Z,59.39
2022-10-13T13:26:20.185Z,59.25
2022-10-13T13:28:48.647Z,59.29
2022-10-13T13:31:16.837Z,59.40
2022-10-13T13:33:44.069Z,59.51
2022-10-13T13:36:18.774Z,59.37
2022-10-13T13:38:47.974Z,59.02
2022-10-13T13:41:15.856Z,58.90
2022-10-13T13:43:42.941Z,59.23
2022-10-13T13:46:20.950Z,59.12
2022-10-13T13:48:48.176Z,59.72
2022-10-13T13:51:15.525Z,58.95
2022-10-13T13:53:44.922Z,59.79
2022-10-13T13:56:16.471Z,60.05
2022-10-13T13:58:44.859Z,59.86
2022-10-13T14:01:12.603Z,59.94
2022-10-13T14:03:40.017Z,60.02
2022-10-13T14:06:09.483Z,60.00
2022-10-13T14:08:42.743Z,60.57
2022-10-13T14:11:10.700Z,60.73
2022-10-13T14:13:37.885Z,60.10
2022-10-13T14:16:05.267Z,59.92
2022-10-13T14:18:32.405Z,60.10
2022-10-13T14:20:59.460Z,60.30
2022-10-13T14:23:26.493Z,60.38
2022-10-13T14:25:54.226Z,60.34
2022-10-13T14:28:22.677Z,60.57
2022-10-13T14:30:50.059Z,60.77
2022-10-13T14:33:19.610Z,60.54
2022-10-13T14:35:47.237Z,61.38
2022-10-13T14:38:16.567Z,61.28
2022-10-13T14:40:44.957Z,61.59
2022-10-13T14:43:12.143Z,61.35
2022-10-13T14:45:39.209Z,61.39
2022-10-13T14:48:06.327Z,61.74
2022-10-13T14:50:34.302Z,61.82
2022-10-13T14:53:01.309Z,62.01
2022-10-13T14:55:28.798Z,61.88
2022-10-13T14:57:55.914Z,62.24
2022-10-13T15:00:22.973Z,62.00
2022-10-13T15:02:49.980Z,62.52
2022-10-13T15:05:19.032Z,62.19
2022-10-13T15:07:46.094Z,62.02
2022-10-13T15:10:13.265Z,62.22
2022-10-13T15:12:40.364Z,62.39
2022-10-13T15:15:07.765Z,62.39
2022-10-13T15:17:34.872Z,62.33
2022-10-13T15:20:01.859Z,62.52
2022-10-13T15:22:30.362Z,62.40
2022-10-13T15:24:57.441Z,62.15
2022-10-13T15:27:24.412Z,62.58
2022-10-13T15:29:51.554Z,62.36
2022-10-13T15:32:19.199Z,62.85
2022-10-13T15:34:54.897Z,62.36
2022-10-13T15:37:22.364Z,62.19
2022-10-13T15:39:53.294Z,62.39
2022-10-13T15:42:24.136Z,62.31
2022-10-13T15:45:08.775Z,62.66
2022-10-13T15:47:37.278Z,62.47
2022-10-13T15:50:04.587Z,62.29
2022-10-13T15:52:34.962Z,62.24
2022-10-13T15:55:02.368Z,62.57
2022-10-13T15:57:31.168Z,62.34
2022-10-13T15:59:58.154Z,62.76
2022-10-13T16:02:25.212Z,62.82
2022-10-13T16:04:52.141Z,62.49
2022-10-13T16:07:19.082Z,62.35
2022-10-13T16:09:46.157Z,62.62
2022-10-13T16:12:13.153Z,62.48
2022-10-13T16:14:40.148Z,62.62
2022-10-13T16:17:07.145Z,62.66
2022-10-13T16:19:34.174Z,62.73
2022-10-13T16:22:01.174Z,62.27
2022-10-13T16:24:29.034Z,62.18
2022-10-13T16:26:56.358Z,62.50
2022-10-13T16:29:24.510Z,62.61
2022-10-13T16:31:51.836Z,62.65
2022-10-13T16:34:19.063Z,62.31
2022-10-13T16:36:46.014Z,62.22
2022-10-13T16:39:13.006Z,62.02
2022-10-13T16:41:40.403Z,62.15
2022-10-13T16:44:07.433Z,62.34
2022-10-13T16:46:34.487Z,62.35
2022-10-13T16:49:02.113Z,62.55
2022-10-13T16:51:29.182Z,63.23
2022-10-13T16:54:02.756Z,63.15
2022-10-13T16:56:31.243Z,62.86
2022-10-13T16:58:59.178Z,63.14
2022-10-13T17:01:26.658Z,62.62
2022-10-13T17:03:53.886Z,63.01
2022-10-13T17:06:21.966Z,63.31
2022-10-13T17:08:55.080Z,62.71
2022-10-13T17:11:23.772Z,62.81
2022-10-13T17:13:51.211Z,62.71
2022-10-13T17:16:18.805Z,62.96
2022-10-13T17:18:46.609Z,62.98
2022-10-13T17:21:14.750Z,62.87
2022-10-13T17:23:47.342Z,62.89
2022-10-13T17:26:16.450Z,63.00
2022-10-13T17:28:43.806Z,62.99
2022-10-13T17:31:15.947Z,63.01
2022-10-13T17:33:43.564Z,63.16
2022-10-13T17:36:15.008Z,62.69
2022-10-13T17:38:42.378Z,62.75
2022-10-13T17:41:10.458Z,62.98
2022-10-13T17:43:44.833Z,62.64
2022-10-13T17:46:34.952Z,62.81
2022-10-13T17:49:00.272Z,63.47
2022-10-13T17:51:28.000Z,63.61
2022-10-13T17:53:55.512Z,63.40
2022-10-13T17:56:24.311Z,63.56
2022-10-13T17:58:51.647Z,63.55
2022-10-13T18:01:28.536Z,63.63
2022-10-13T18:03:57.089Z,63.16
2022-10-13T18:06:36.825Z,63.34
2022-10-13T18:09:10.180Z,63.76
2022-10-13T18:11:37.389Z,63.33
2022-10-13T18:14:04.484Z,63.69
2022-10-13T18:16:31.948Z,63.97
2022-10-13T18:18:58.939Z,63.57
2022-10-13T18:21:29.630Z,63.75
2022-10-13T18:23:57.608Z,64.67
2022-10-13T18:26:25.905Z,64.70
2022-10-13T18:28:53.523Z,64.24
2022-10-13T18:31:21.921Z,64.26
2022-10-13T18:33:51.103Z,64.50
2022-10-13T18:36:24.677Z,64.44
2022-10-13T18:38:52.645Z,65.18
2022-10-13T18:41:20.829Z,65.52
2022-10-13T18:43:47.857Z,65.26
2022-10-13T18:46:18.894Z,64.72
2022-10-13T18:48:47.547Z,64.70
2022-10-13T18:51:16.195Z,64.64
2022-10-13T18:53:44.894Z,64.63
2022-10-13T18:56:16.720Z,64.79
2022-10-13T18:58:43.797Z,64.95
2022-10-13T19:01:12.673Z,65.10
2022-10-13T19:03:40.567Z,64.73
2022-10-13T19:06:08.950Z,64.67
2022-10-13T19:08:36.734Z,64.78
2022-10-13T19:11:13.037Z,64.81
2022-10-13T19:13:40.557Z,64.73
2022-10-13T19:16:08.021Z,65.03
2022-10-13T19:18:35.606Z,65.06
2022-10-13T19:21:02.771Z,65.29
2022-10-13T19:23:29.795Z,65.16
2022-10-13T19:25:56.862Z,65.08
2022-10-13T19:28:24.251Z,65.30
2022-10-13T19:30:54.804Z,65.49
2022-10-13T19:33:21.804Z,64.95
2022-10-13T19:35:54.147Z,65.24
2022-10-13T19:38:21.249Z,65.45
2022-10-13T19:40:52.704Z,65.32
2022-10-13T19:43:19.800Z,65.61
2022-10-13T19:45:47.693Z,65.56
2022-10-13T19:48:15.850Z,65.53
2022-10-13T19:50:43.828Z,65.43
2022-10-13T19:53:13.875Z,65.38
2022-10-13T19:55:41.897Z,65.80
2022-10-13T19:58:08.905Z,65.52
2022-10-13T20:00:36.296Z,65.60
2022-10-13T20:03:04.105Z,65.30
2022-10-13T20:05:31.333Z,65.64
2022-10-13T20:07:58.465Z,65.35
2022-10-13T20:10:25.599Z,65.65
2022-10-13T20:12:52.621Z,65.37
2022-10-13T20:15:19.860Z,65.30
2022-10-13T20:17:48.104Z,65.60
2022-10-13T20:20:18.850Z,65.43
2022-10-13T20:22:48.600Z,65.25
2022-10-13T20:25:19.763Z,65.10
2022-10-13T20:27:47.103Z,65.32
2022-10-13T20:30:14.517Z,65.40
2022-10-13T20:32:41.666Z,65.21
2022-10-13T20:35:08.926Z,65.51
2022-10-13T20:37:36.201Z,65.47
2022-10-13T20:40:03.291Z,66.16
2022-10-13T20:42:31.801Z,65.84
2022-10-13T20:44:58.760Z,65.88
2022-10-13T20:47:25.753Z,65.91
2022-10-13T20:49:52.786Z,65.81
2022-10-13T20:52:19.933Z,65.91
2022-10-13T20:54:48.336Z,65.87
2022-10-13T20:57:15.325Z,65.69
2022-10-13T20:59:45.089Z,65.90
2022-10-13T21:02:16.779Z,65.74
2022-10-13T21:04:43.840Z,66.22
2022-10-13T21:07:10.810Z,65.81
2022-10-13T21:09:37.841Z,65.92
2022-10-13T21:12:04.926Z,65.92
2022-10-13T21:14:32.112Z,65.96
2022-10-13T21:16:59.127Z,65.86
2022-10-13T21:19:26.350Z,65.81
2022-10-13T21:21:53.301Z,66.15
2022-10-13T21:24:20.281Z,65.72
2022-10-13T21:26:47.589Z,65.89
2022-10-13T21:29:15.349Z,65.73
2022-10-13T21:31:42.416Z,66.23
2022-10-13T21:34:10.361Z,66.42
2022-10-13T21:36:37.535Z,66.26
2022-10-13T21:39:05.220Z,65.96
2022-10-13T21:41:33.024Z,66.26
2022-10-13T21:44:00.147Z,65.95
2022-10-13T21:46:31.751Z,66.42
2022-10-13T21:48:59.804Z,65.86
2022-10-13T21:51:29.686Z,65.99
2022-10-13T21:54:00.518Z,66.02
2022-10-13T21:56:30.727Z,66.25
2022-10-13T21:58:59.362Z,66.16
2022-10-13T22:01:26.487Z,65.98
2022-10-13T22:03:55.351Z,66.70
2022-10-13T22:06:26.095Z,66.38
2022-10-13T22:08:54.213Z,66.17
2022-10-13T22:11:22.233Z,66.14
2022-10-13T22:13:49.395Z,66.47
2022-10-13T22:16:18.579Z,66.53
2022-10-13T22:18:45.744Z,66.55
2022-10-13T22:21:17.056Z,66.86
2022-10-13T22:23:45.064Z,66.93
2022-10-13T22:26:12.286Z,66.88
2022-10-13T22:28:39.897Z,66.78
2022-10-13T22:31:11.774Z,66.49
2022-10-13T22:33:40.203Z,66.60
2022-10-13T22:36:17.575Z,66.61
2022-10-13T22:38:44.983Z,66.67
2022-10-13T22:41:13.317Z,66.89
2022-10-13T22:43:40.493Z,67.04
2022-10-13T22:46:17.458Z,66.28
2022-10-13T22:48:44.896Z,66.98
2022-10-13T22:51:15.145Z,67.16
2022-10-13T22:53:42.340Z,67.16
2022-10-13T22:56:11.710Z,66.90
2022-10-13T22:58:38.713Z,66.78
2022-10-13T23:01:06.965Z,67.37
2022-10-13T23:03:34.493Z,67.15
2022-10-13T23:06:02.285Z,67.47
2022-10-13T23:08:29.238Z,67.50
2022-10-13T23:10:56.256Z,67.59
2022-10-13T23:13:23.257Z,67.73
2022-10-13T23:15:50.593Z,67.52
2022-10-13T23:18:17.774Z,67.24
2022-10-13T23:20:45.100Z,66.99
2022-10-13T23:23:14.436Z,67.40
2022-10-13T23:25:41.548Z,67.15
2022-10-13T23:28:08.529Z,67.58
2022-10-13T23:30:35.460Z,67.31
2022-10-13T23:33:02.411Z,67.03
2022-10-13T23:35:29.527Z,67.73
2022-10-13T23:37:56.505Z,67.11
2022-10-13T23:40:23.489Z,67.23
2022-10-13T23:42:50.467Z,67.93
2022-10-13T23:45:17.476Z,67.23
2022-10-13T23:47:44.960Z,67.37
2022-10-13T23:50:11.976Z,68.00
2022-10-13T23:52:38.913Z,67.75
2022-10-13T23:55:06.131Z,67.42
2022-10-13T23:57:33.071Z,67.07
